Time;durP1;ratioP1;P1;durP2;ratioP2;P2;SDS_P1;SDS_P2;PMS_P1;PMS_P2;Temp;Humidity;BMP_temperature;BMP_pressure;BME280_temperature;BME280_humidity;BME280_pressure;Samples;Min_cycle;Max_cycle;Signal;HPM_P1;HPM_P2
2022/04/30 00:00:40;;;;;;;1.45;1.23;;;;;;;15.22;62.87;101338.50;4951619;29;20134;-70
2022/04/30 00:03:09;;;;;;;1.80;1.23;;;;;;;15.10;61.46;101338.25;4951049;28;20104;-71
2022/04/30 00:05:37;;;;;;;2.92;1.55;;;;;;;14.93;62.90;101318.78;4951211;29;20377;-71
2022/04/30 00:08:08;;;;;;;4.38;1.27;;;;;;;14.93;63.82;101342.22;4950875;29;20052;-71
2022/04/30 00:10:38;;;;;;;1.85;1.13;;;;;;;14.93;65.96;101331.81;4951055;28;20553;-70
2022/04/30 00:13:08;;;;;;;4.82;1.30;;;;;;;14.93;65.06;101330.06;4951193;29;20050;-73
2022/04/30 00:15:36;;;;;;;1.55;0.95;;;;;;;14.93;63.28;101324.00;4950587;29;20082;-72
2022/04/30 00:18:06;;;;;;;1.92;1.40;;;;;;;14.83;64.77;101330.75;4950818;28;20051;-72
2022/04/30 00:20:36;;;;;;;1.90;1.25;;;;;;;14.73;64.76;101320.97;4950702;29;20051;-74
2022/04/30 00:23:04;;;;;;;1.83;1.00;;;;;;;14.68;64.67;101318.25;4950244;29;20130;-72
2022/04/30 00:25:35;;;;;;;1.58;1.02;;;;;;;14.65;65.98;101319.06;4950639;29;20051;-72
2022/04/30 00:28:03;;;;;;;2.85;1.35;;;;;;;14.65;65.91;101308.66;4949947;29;20055;-73
2022/04/30 00:30:32;;;;;;;2.35;1.38;;;;;;;14.60;63.55;101299.88;4951043;29;20051;-73
2022/04/30 00:33:01;;;;;;;2.67;1.42;;;;;;;14.55;63.87;101295.41;4950505;29;20070;-73
2022/04/30 00:35:30;;;;;;;3.50;1.20;;;;;;;14.54;66.41;101296.22;4952639;28;20051;-74
2022/04/30 00:37:59;;;;;;;4.07;1.45;;;;;;;14.51;65.62;101285.75;4950448;29;20047;-72
2022/04/30 00:40:27;;;;;;;2.45;1.25;;;;;;;14.46;66.46;101286.50;4950481;29;20051;-73
2022/04/30 00:42:57;;;;;;;3.15;1.42;;;;;;;14.38;64.81;101275.03;4950277;29;20079;-73
2022/04/30 00:45:26;;;;;;;2.50;1.40;;;;;;;14.35;67.46;101269.78;4950718;29;20122;-73
2022/04/30 00:47:55;;;;;;;3.13;1.63;;;;;;;14.27;66.55;101273.94;4950301;29;20051;-72
2022/04/30 00:50:23;;;;;;;1.38;0.95;;;;;;;14.24;66.83;101263.44;4951252;28;20055;-73
2022/04/30 00:52:54;;;;;;;2.10;1.20;;;;;;;14.24;67.41;101263.44;4953741;28;20536;-72
2022/04/30 00:55:24;;;;;;;2.95;1.27;;;;;;;14.19;67.26;101262.47;4951496;29;20058;-72
2022/04/30 00:58:00;;;;;;;7.22;1.13;;;;;;;14.24;69.30;101261.72;4950793;28;20589;-73
2022/04/30 01:00:29;;;;;;;2.60;1.23;;;;;;;14.21;66.33;101260.78;4951132;29;20043;-73
2022/04/30 01:02:58;;;;;;;3.20;1.40;;;;;;;14.20;67.45;101257.31;4950325;28;20103;-73
2022/04/30 01:05:26;;;;;;;1.80;1.13;;;;;;;14.20;65.64;101251.19;4950285;29;20486;-72
2022/04/30 01:07:55;;;;;;;2.05;1.33;;;;;;;14.18;65.56;101247.72;4950228;29;20090;-74
2022/04/30 01:10:24;;;;;;;1.73;1.10;;;;;;;14.14;64.47;101251.97;4950196;29;20139;-72
2022/04/30 01:12:53;;;;;;;2.63;1.10;;;;;;;14.10;65.64;101241.44;4949907;29;20043;-74
2022/04/30 01:15:23;;;;;;;1.33;1.00;;;;;;;14.12;65.74;101240.63;4950065;29;20512;-71
2022/04/30 01:17:52;;;;;;;1.48;0.90;;;;;;;14.08;64.14;101237.91;4949986;29;20126;-72
2022/04/30 01:20:21;;;;;;;3.30;1.42;;;;;;;14.06;65.47;101235.28;4950530;29;20059;-72
2022/04/30 01:23:02;;;;;;;1.60;1.05;;;;;;;14.06;66.35;101237.00;4949745;29;20047;-71
2022/04/30 01:25:32;;;;;;;1.88;1.30;;;;;;;14.01;66.35;101236.91;4950307;29;20516;-72
2022/04/30 01:28:01;;;;;;;1.67;1.05;;;;;;;13.96;67.72;101235.91;4949593;29;20054;-72
2022/04/30 01:30:30;;;;;;;1.25;0.90;;;;;;;13.93;66.55;101231.53;4950376;29;20517;-71
2022/04/30 01:38:31;;;;;;;1.50;1.00;;;;;;;13.84;66.54;101207.91;4950651;29;20168;-71
2022/04/30 01:40:59;;;;;;;1.50;1.17;;;;;;;13.84;68.54;101226.09;4950179;28;20051;-72
2022/04/30 01:43:28;;;;;;;1.98;1.17;;;;;;;13.80;67.64;101216.47;4949717;28;20054;-71
2022/04/30 01:45:57;;;;;;;2.03;1.08;;;;;;;13.76;68.36;101197.28;4950459;29;20086;-71
2022/04/30 01:48:26;;;;;;;1.40;1.10;;;;;;;13.73;69.53;101191.16;4952868;29;20137;-72
2022/04/30 01:50:55;;;;;;;1.80;1.33;;;;;;;13.70;68.26;101185.88;4951081;29;20094;-72
2022/04/30 01:53:23;;;;;;;1.95;1.15;;;;;;;13.65;69.39;101171.88;4949696;28;20380;-72
2022/04/30 01:55:53;;;;;;;5.05;1.30;;;;;;;13.60;70.41;101166.59;4950189;29;20048;-72
2022/04/30 01:58:21;;;;;;;2.50;1.25;;;;;;;13.56;70.22;101163.03;4950150;29;20051;-71
2022/04/30 02:00:50;;;;;;;1.48;1.02;;;;;;;13.51;71.83;101150.75;4950136;29;20098;-71
2022/04/30 02:03:19;;;;;;;2.05;1.35;;;;;;;13.53;71.59;101149.94;4949637;29;20138;-71
2022/04/30 02:05:47;;;;;;;2.45;1.48;;;;;;;13.53;70.99;101151.69;4952610;28;20062;-71
2022/04/30 02:08:20;;;;;;;2.75;1.30;;;;;;;13.53;73.44;101142.16;4953453;29;20054;-72
2022/04/30 02:10:49;;;;;;;2.88;1.45;;;;;;;13.53;75.14;101142.16;4953391;29;20548;-72
2022/04/30 02:13:24;;;;;;;1.92;1.23;;;;;;;13.51;75.65;101135.16;4953493;29;20046;-72
2022/04/30 02:15:53;;;;;;;2.72;1.15;;;;;;;13.44;77.13;101139.34;4952974;29;20419;-72
2022/04/30 02:18:24;;;;;;;1.83;1.05;;;;;;;13.37;77.15;101142.63;4952842;29;20106;-73
2022/04/30 02:20:53;;;;;;;2.22;1.38;;;;;;;13.32;76.05;101131.25;4952955;29;20138;-73
2022/04/30 02:23:23;;;;;;;1.75;1.10;;;;;;;13.29;77.01;101129.47;4952461;29;20047;-73
2022/04/30 02:25:52;;;;;;;1.50;1.15;;;;;;;13.29;78.10;101116.47;4952795;29;20075;-75
2022/04/30 02:28:22;;;;;;;2.75;1.10;;;;;;;13.27;79.20;101122.44;4953008;29;20066;-74
2022/04/30 02:30:52;;;;;;;2.63;1.00;;;;;;;13.20;80.82;101122.28;4952795;29;20134;-75
2022/04/30 02:33:21;;;;;;;2.17;1.30;;;;;;;13.15;80.79;101118.69;4952536;29;20465;-73
2022/04/30 02:35:50;;;;;;;1.98;1.20;;;;;;;13.12;82.98;101116.00;4954594;28;20141;-71
2022/04/30 02:38:19;;;;;;;2.42;1.13;;;;;;;13.11;85.59;101108.19;4952984;29;20051;-70
2022/04/30 02:40:47;;;;;;;3.53;1.50;;;;;;;13.09;84.78;101110.75;4952951;28;20051;-68
2022/04/30 02:43:19;;;;;;;1.98;1.13;;;;;;;13.08;86.40;101115.88;4955233;29;20043;-69
2022/04/30 02:45:50;;;;;;;2.05;1.13;;;;;;;13.04;86.95;101112.34;4953645;28;20059;-69
2022/04/30 02:48:19;;;;;;;2.03;1.27;;;;;;;13.02;88.33;101113.16;4952594;29;20058;-70
2022/04/30 02:50:48;;;;;;;2.08;1.23;;;;;;;12.99;89.74;101111.38;4952747;29;20773;-71
2022/04/30 02:53:16;;;;;;;3.63;1.63;;;;;;;12.97;94.41;101113.03;4952415;29;20126;-71
2022/04/30 02:55:45;;;;;;;2.28;1.10;;;;;;;12.95;98.50;101115.59;4952174;29;20753;-72
2022/04/30 03:01:05;;;;;;;1.77;1.17;;;;;;;12.89;100.00;101114.56;4897602;28;20049;-71
2022/04/30 03:03:34;;;;;;;2.05;1.30;;;;;;;12.86;100.00;101106.69;4952301;29;20047;-71
2022/04/30 03:06:03;;;;;;;4.75;1.65;;;;;;;12.77;100.00;101103.00;4951996;29;20055;-71
2022/04/30 03:08:32;;;;;;;3.58;1.63;;;;;;;12.81;100.00;101105.72;4952032;29;20126;-72
2022/04/30 03:11:03;;;;;;;5.13;1.83;;;;;;;12.78;100.00;101103.88;4952022;28;20390;-70
2022/04/30 03:13:32;;;;;;;1.95;1.38;;;;;;;12.74;100.00;101105.53;4952093;29;20110;-71
2022/04/30 03:21:41;;;;;;;4.38;1.45;;;;;;;12.73;100.00;101103.75;4950339;28;20130;-73
2022/04/30 03:21:44;;;;;;;2.80;1.58;;;;;;;12.68;100.00;101100.16;4951742;29;20110;-71
2022/04/30 03:24:13;;;;;;;3.20;1.30;;;;;;;12.65;100.00;101094.91;4951992;28;20055;-72
2022/04/30 03:26:42;;;;;;;4.80;1.67;;;;;;;12.62;100.00;101097.44;4951552;29;20047;-73
2022/04/30 03:29:11;;;;;;;2.10;1.15;;;;;;;12.59;100.00;101094.72;4951572;29;20059;-73
2022/04/30 03:31:41;;;;;;;2.38;1.30;;;;;;;12.56;100.00;101092.94;4951562;29;20043;-73
2022/04/30 03:34:12;;;;;;;5.35;1.65;;;;;;;12.54;100.00;101097.22;4951755;28;20067;-75
2022/04/30 03:36:40;;;;;;;1.85;1.23;;;;;;;12.52;100.00;101088.50;4951954;29;20054;-74
2022/04/30 03:39:09;;;;;;;2.38;1.50;;;;;;;12.52;100.00;101092.81;4953935;29;20086;-76
2022/04/30 03:41:38;;;;;;;3.35;2.08;;;;;;;12.50;100.00;101084.97;4952348;29;20134;-76
2022/04/30 03:44:07;;;;;;;3.22;1.50;;;;;;;12.48;100.00;101081.47;4951547;29;20094;-75
2022/04/30 03:46:36;;;;;;;3.47;1.45;;;;;;;12.47;100.00;101078.84;4950940;29;20043;-76
2022/04/30 03:49:04;;;;;;;4.13;1.48;;;;;;;12.46;100.00;101083.16;4950909;29;20087;-76
2022/04/30 03:51:34;;;;;;;4.38;1.65;;;;;;;12.44;100.00;101076.16;4951673;28;20142;-76
2022/04/30 03:54:03;;;;;;;3.55;1.83;;;;;;;12.42;100.00;101077.84;4951723;29;20047;-76
2022/04/30 03:56:32;;;;;;;2.85;1.52;;;;;;;12.40;100.00;101077.78;4951528;29;20106;-76
2022/04/30 03:59:01;;;;;;;4.55;1.20;;;;;;;12.36;100.00;101071.63;4951688;28;20051;-76
2022/04/30 04:01:30;;;;;;;7.72;1.50;;;;;;;12.35;100.00;101075.09;4951416;28;20414;-76
2022/04/30 04:04:01;;;;;;;3.63;1.92;;;;;;;12.35;100.00;101071.63;4951085;29;20132;-76
2022/04/30 04:06:29;;;;;;;5.00;1.60;;;;;;;12.31;100.00;101068.03;4951463;29;20163;-76
2022/04/30 04:08:59;;;;;;;4.18;1.70;;;;;;;12.30;100.00;101074.09;4951026;29;20047;-77
2022/04/30 04:11:28;;;;;;;2.17;1.30;;;;;;;12.29;100.00;101067.13;4951151;29;20138;-76
2022/04/30 04:19:30;;;;;;;3.72;1.23;;;;;;;12.24;100.00;101076.50;4951155;29;20058;-77
2022/04/30 04:21:58;;;;;;;5.73;1.30;;;;;;;12.23;100.00;101082.53;4950493;29;20060;-77
2022/04/30 04:27:14;;;;;;;2.65;1.40;;;;;;;12.17;100.00;101074.56;4950572;28;20098;-76
2022/04/30 04:29:42;;;;;;;1.63;1.00;;;;;;;12.15;100.00;101074.53;4950780;28;20058;-75
2022/04/30 04:32:11;;;;;;;1.75;1.10;;;;;;;12.12;100.00;101076.16;4950693;29;20079;-74
2022/04/30 04:34:39;;;;;;;4.07;1.45;;;;;;;12.09;100.00;101081.25;4952975;28;20142;-75
2022/04/30 04:37:08;;;;;;;1.33;0.90;;;;;;;12.07;100.00;101064.75;4953470;29;20055;-75
2022/04/30 04:39:38;;;;;;;3.03;1.48;;;;;;;12.05;100.00;101063.81;4951374;29;20053;-75
2022/04/30 04:42:08;;;;;;;1.55;0.93;;;;;;;12.04;100.00;101067.28;4950215;28;20051;-73
2022/04/30 04:44:37;;;;;;;1.85;0.95;;;;;;;12.04;100.00;101062.97;4950556;28;20057;-71
2022/04/30 04:47:06;;;;;;;2.15;1.05;;;;;;;11.99;100.00;101059.38;4950282;29;20047;-75
2022/04/30 04:49:35;;;;;;;1.42;0.90;;;;;;;11.95;100.00;101058.38;4950762;29;20521;-73
2022/04/30 04:52:03;;;;;;;2.15;1.20;;;;;;;11.91;100.00;101053.97;4950290;29;20625;-72
2022/04/30 04:54:32;;;;;;;1.10;1.00;;;;;;;11.91;100.00;101051.38;4950650;29;20098;-72
2022/04/30 04:57:02;;;;;;;2.65;1.10;;;;;;;11.88;100.00;101046.06;4950480;29;20055;-73
2022/04/30 04:59:31;;;;;;;1.95;1.08;;;;;;;11.82;100.00;101037.22;4950264;29;20051;-73
2022/04/30 05:02:00;;;;;;;1.40;0.90;;;;;;;11.85;100.00;101040.78;4950108;29;20115;-73
2022/04/30 05:04:28;;;;;;;1.98;1.15;;;;;;;11.83;100.00;101039.00;4950243;29;20135;-73
2022/04/30 05:06:57;;;;;;;1.60;0.93;;;;;;;11.81;100.00;101033.75;4950244;28;20083;-74
2022/04/30 05:09:25;;;;;;;2.58;1.33;;;;;;;11.83;100.00;101031.22;4950274;29;20126;-73
2022/04/30 05:11:54;;;;;;;2.67;1.30;;;;;;;11.82;100.00;101034.63;4950258;29;20055;-73
2022/04/30 05:14:24;;;;;;;2.30;1.20;;;;;;;11.81;100.00;101027.69;4950101;29;20457;-73
2022/04/30 05:16:52;;;;;;;2.83;1.00;;;;;;;11.78;100.00;101015.53;4949907;29;20678;-73
2022/04/30 05:19:21;;;;;;;1.20;0.93;;;;;;;11.75;100.00;101007.66;4949845;29;20058;-73
2022/04/30 05:21:49;;;;;;;1.20;0.88;;;;;;;11.74;100.00;101001.56;4950244;29;20154;-74
2022/04/30 05:24:18;;;;;;;3.75;1.27;;;;;;;11.70;100.00;100993.66;4949896;28;20127;-74
2022/04/30 05:26:47;;;;;;;1.85;1.30;;;;;;;11.67;100.00;100985.81;4949948;29;20089;-73
2022/04/30 05:29:15;;;;;;;2.45;1.02;;;;;;;11.65;100.00;100979.72;4950200;29;20082;-74
2022/04/30 05:31:45;;;;;;;2.70;1.35;;;;;;;11.64;100.00;100985.75;4951145;28;20091;-73
2022/04/30 05:34:14;;;;;;;3.10;1.40;;;;;;;11.62;100.00;100990.88;4952135;29;20135;-75
2022/04/30 05:36:42;;;;;;;2.50;1.17;;;;;;;11.62;100.00;100992.59;4952833;28;20087;-73
2022/04/30 05:39:11;;;;;;;2.45;1.23;;;;;;;11.58;100.00;100982.97;4950345;28;20083;-73
2022/04/30 05:41:39;;;;;;;4.05;1.30;;;;;;;11.51;100.00;100982.78;4953538;29;20157;-72
2022/04/30 05:44:07;;;;;;;3.35;1.50;;;;;;;11.48;100.00;100982.69;4953067;29;20126;-72
2022/04/30 05:46:36;;;;;;;3.30;1.30;;;;;;;11.50;100.00;100986.22;4953481;29;20078;-73
2022/04/30 05:49:06;;;;;;;1.45;1.00;;;;;;;11.48;100.00;100985.28;4953653;29;20143;-73
2022/04/30 05:51:34;;;;;;;1.88;1.20;;;;;;;11.48;100.00;100982.69;4953236;29;20122;-73
2022/04/30 05:54:03;;;;;;;1.35;0.93;;;;;;;11.46;100.00;100974.00;4953721;29;20082;-73
2022/04/30 05:56:31;;;;;;;3.78;1.67;;;;;;;11.41;100.00;100973.00;4953936;29;20047;-75
2022/04/30 05:58:59;;;;;;;2.60;1.50;;;;;;;11.41;100.00;100965.22;4953903;29;20055;-73
2022/04/30 06:01:28;;;;;;;5.00;1.75;;;;;;;11.37;100.00;100965.94;4953073;29;20710;-73
2022/04/30 06:03:56;;;;;;;3.08;1.70;;;;;;;11.37;100.00;100962.50;4953248;29;20051;-74
2022/04/30 06:06:26;;;;;;;3.67;1.45;;;;;;;11.36;100.00;100956.44;4952843;29;20048;-72
2022/04/30 06:08:56;;;;;;;5.57;1.60;;;;;;;11.38;100.00;100939.19;4953776;29;20047;-74
2022/04/30 06:11:25;;;;;;;3.45;1.30;;;;;;;11.39;100.00;100940.97;4953380;29;20062;-73
2022/04/30 06:13:53;;;;;;;4.00;1.55;;;;;;;11.40;100.00;100939.25;4953224;29;20047;-73
2022/04/30 06:16:21;;;;;;;2.70;1.50;;;;;;;11.40;100.00;100941.84;4952997;29;20051;-73
2022/04/30 06:18:50;;;;;;;3.17;1.60;;;;;;;11.41;100.00;100939.31;4953438;28;20055;-74
2022/04/30 06:21:18;;;;;;;3.70;1.60;;;;;;;11.42;100.00;100943.63;4953165;29;20134;-72
2022/04/30 06:23:48;;;;;;;3.33;1.63;;;;;;;11.43;100.00;100932.47;4952743;28;20043;-73
2022/04/30 06:26:17;;;;;;;2.55;1.67;;;;;;;11.43;100.00;100929.88;4952817;28;20055;-74
2022/04/30 06:28:45;;;;;;;2.88;1.67;;;;;;;11.40;100.00;100921.97;4952753;29;20047;-74
2022/04/30 06:31:14;;;;;;;2.70;1.75;;;;;;;11.42;100.00;100915.13;4956146;28;20065;-73
2022/04/30 06:33:42;;;;;;;3.33;1.42;;;;;;;11.46;100.00;100929.94;4952756;29;20110;-74
2022/04/30 06:36:10;;;;;;;2.97;1.70;;;;;;;11.45;100.00;100922.13;4954383;28;20142;-74
2022/04/30 06:38:39;;;;;;;2.25;1.27;;;;;;;11.44;100.00;100923.84;4952549;29;20498;-74
2022/04/30 06:41:09;;;;;;;5.18;1.58;;;;;;;11.45;100.00;100915.25;4952467;29;20494;-74
2022/04/30 06:43:37;;;;;;;3.80;1.70;;;;;;;11.44;100.00;100916.06;4952405;29;20138;-74
2022/04/30 06:46:06;;;;;;;3.95;1.40;;;;;;;11.45;100.00;100915.25;4952973;28;20762;-74
2022/04/30 06:48:34;;;;;;;2.67;1.73;;;;;;;11.44;100.00;100912.59;4952393;29;20058;-75
2022/04/30 06:51:02;;;;;;;3.80;1.50;;;;;;;11.45;100.00;100902.28;4952195;28;20098;-74
2022/04/30 06:59:10;;;;;;;1.48;1.08;;;;;;;11.46;100.00;100903.16;4952165;29;20070;-75
2022/04/30 07:01:44;;;;;;;3.00;1.25;;;;;;;11.48;100.00;100899.78;4952559;29;20062;-73
2022/04/30 07:04:14;;;;;;;2.17;1.30;;;;;;;11.47;100.00;100905.78;4952501;29;20047;-72
2022/04/30 07:06:42;;;;;;;4.07;1.42;;;;;;;11.48;100.00;100898.91;4952361;29;20054;-73
2022/04/30 07:09:11;;;;;;;2.63;1.38;;;;;;;11.51;100.00;100898.97;4952065;29;20565;-73
2022/04/30 07:11:41;;;;;;;2.55;1.40;;;;;;;11.45;100.00;100888.44;4952369;29;20051;-71
2022/04/30 07:14:09;;;;;;;2.40;1.38;;;;;;;11.48;100.00;100902.38;4951813;29;20039;-72
2022/04/30 07:16:38;;;;;;;2.90;1.05;;;;;;;11.48;100.00;100893.72;4952500;28;20122;-72
2022/04/30 07:19:07;;;;;;;2.03;1.42;;;;;;;11.48;100.00;100899.78;4952247;29;20052;-73
2022/04/30 07:21:35;;;;;;;3.35;1.55;;;;;;;11.51;100.00;100899.84;4952116;29;20087;-73
2022/04/30 07:24:03;;;;;;;3.47;1.25;;;;;;;11.52;100.00;100893.84;4951451;29;20560;-73
2022/04/30 07:26:32;;;;;;;3.53;1.60;;;;;;;11.49;100.00;100887.69;4953297;29;20138;-72
2022/04/30 07:29:02;;;;;;;2.63;1.48;;;;;;;11.55;100.00;100895.66;4953984;29;20106;-73
2022/04/30 07:31:30;;;;;;;4.00;1.40;;;;;;;11.56;100.00;100896.50;4952197;29;20086;-73
2022/04/30 07:33:59;;;;;;;3.28;1.75;;;;;;;11.57;100.00;100893.06;4951174;29;20051;-72
2022/04/30 07:36:34;;;;;;;2.80;1.50;;;;;;;11.56;100.00;100897.38;4959632;28;20114;-72
2022/04/30 07:39:02;;;;;;;5.50;1.50;;;;;;;11.58;100.00;100894.84;4951736;29;20127;-72
2022/04/30 07:41:31;;;;;;;1.92;1.30;;;;;;;11.59;100.00;100896.59;4951181;28;20103;-72
2022/04/30 07:44:01;;;;;;;2.10;1.35;;;;;;;11.59;100.00;100899.19;4950934;29;20047;-72
2022/04/30 07:46:30;;;;;;;1.75;1.15;;;;;;;11.59;100.00;100904.38;4951463;29;20055;-72
2022/04/30 07:49:00;;;;;;;2.45;1.50;;;;;;;11.55;100.00;100893.06;4951390;28;20086;-72
2022/04/30 07:51:42;;;;;;;2.90;1.50;;;;;;;11.59;100.00;100900.09;4950920;29;20051;-72
2022/04/30 07:54:10;;;;;;;2.22;1.13;;;;;;;11.60;100.00;100894.06;4951191;29;20051;-73
2022/04/30 07:56:39;;;;;;;2.42;1.63;;;;;;;11.63;100.00;100890.66;4951495;29;20055;-71
2022/04/30 07:59:09;;;;;;;1.95;1.48;;;;;;;11.63;100.00;100883.75;4951228;29;20118;-71
2022/04/30 08:01:37;;;;;;;2.10;1.60;;;;;;;11.65;100.00;100884.69;4950595;28;20142;-71
2022/04/30 08:04:06;;;;;;;2.20;1.30;;;;;;;11.64;100.00;100884.66;4950907;29;20478;-71
2022/04/30 08:06:34;;;;;;;2.78;1.50;;;;;;;11.67;100.00;100884.72;4950929;29;20063;-72
2022/04/30 08:09:03;;;;;;;2.47;1.30;;;;;;;11.65;100.00;100870.84;4951197;29;20051;-72
2022/04/30 08:11:31;;;;;;;3.58;1.52;;;;;;;11.65;100.00;100871.72;4951098;29;20138;-72
2022/04/30 08:14:00;;;;;;;2.10;1.58;;;;;;;11.64;100.00;100875.16;4950932;29;20051;-74
2022/04/30 08:16:30;;;;;;;2.60;1.33;;;;;;;11.63;100.00;100867.34;4951218;29;20098;-71
2022/04/30 08:18:59;;;;;;;2.55;1.35;;;;;;;11.63;100.00;100865.63;4951473;29;20106;-72
2022/04/30 08:21:28;;;;;;;2.33;1.42;;;;;;;11.65;100.00;100865.66;4951045;29;20126;-72
2022/04/30 08:23:56;;;;;;;3.60;1.45;;;;;;;11.65;100.00;100856.16;4952860;28;20059;-73
2022/04/30 08:26:25;;;;;;;3.20;1.58;;;;;;;11.69;100.00;100852.81;4952636;28;20045;-73
2022/04/30 08:28:53;;;;;;;2.42;1.50;;;;;;;11.75;100.00;100841.75;4951754;29;20138;-72
2022/04/30 08:31:21;;;;;;;2.63;1.27;;;;;;;11.76;100.00;100848.69;4950790;29;20090;-72
2022/04/30 08:33:51;;;;;;;2.17;1.27;;;;;;;11.74;100.00;100840.00;4949929;29;20138;-72
2022/04/30 08:36:35;;;;;;;2.47;1.40;;;;;;;11.72;100.00;100833.88;4951325;28;20051;-71
2022/04/30 08:39:04;;;;;;;2.60;1.25;;;;;;;11.73;100.00;100833.06;4949457;28;20118;-71
2022/04/30 08:41:40;;;;;;;2.60;1.58;;;;;;;11.73;100.00;100839.13;4950001;29;20086;-71
2022/04/30 08:44:08;;;;;;;1.92;1.10;;;;;;;11.73;100.00;100827.88;4950129;29;20102;-71
2022/04/30 08:46:37;;;;;;;3.13;1.27;;;;;;;11.74;100.00;100827.91;4950398;28;20047;-71
2022/04/30 08:49:07;;;;;;;2.35;1.50;;;;;;;11.76;100.00;100833.13;4950280;29;20055;-71
2022/04/30 08:51:36;;;;;;;2.55;1.30;;;;;;;11.75;100.00;100826.22;4950126;29;20138;-71
2022/04/30 08:54:05;;;;;;;3.50;1.50;;;;;;;11.76;100.00;100817.56;4950020;29;20059;-70
2022/04/30 08:56:36;;;;;;;2.83;1.20;;;;;;;11.77;100.00;100815.84;4950271;29;20134;-70
2022/04/30 08:59:06;;;;;;;1.48;1.02;;;;;;;11.76;100.00;100814.97;4950307;29;20055;-71
2022/04/30 09:01:46;;;;;;;2.25;1.40;;;;;;;11.73;100.00;100805.41;4949797;29;20051;-71
2022/04/30 09:04:17;;;;;;;2.20;1.27;;;;;;;11.71;100.00;100808.81;4950416;29;20661;-71
2022/04/30 09:06:48;;;;;;;1.58;1.23;;;;;;;11.72;100.00;100810.56;4950143;29;20055;-70
2022/04/30 09:09:25;;;;;;;1.75;0.88;;;;;;;11.73;100.00;100802.81;4950319;29;20086;-71
2022/04/30 09:11:56;;;;;;;1.48;1.10;;;;;;;11.76;100.00;100801.16;4950157;29;20062;-71
2022/04/30 09:14:25;;;;;;;1.80;1.15;;;;;;;11.76;100.00;100807.22;4952234;28;20486;-70
2022/04/30 09:17:05;;;;;;;1.65;0.93;;;;;;;11.72;100.00;100793.28;4954447;29;20136;-70
2022/04/30 09:19:45;;;;;;;1.00;0.80;;;;;;;11.75;100.00;100795.09;4954270;29;20133;-70
2022/04/30 09:22:15;;;;;;;1.95;1.20;;;;;;;11.74;100.00;100782.97;4957239;29;20130;-70
2022/04/30 09:24:48;;;;;;;1.75;1.23;;;;;;;11.75;100.00;100784.72;4954904;29;20047;-69
2022/04/30 09:27:17;;;;;;;3.17;1.17;;;;;;;11.75;100.00;100779.53;4954059;29;20058;-70
2022/04/30 09:29:46;;;;;;;1.23;0.80;;;;;;;11.76;100.00;100777.81;4953937;29;20099;-70
2022/04/30 09:32:22;;;;;;;1.77;1.15;;;;;;;11.79;100.00;100776.16;4953465;29;20094;-70
2022/04/30 09:37:46;;;;;;;1.60;1.10;;;;;;;11.83;100.00;100772.81;4954879;28;20070;-70
2022/04/30 09:40:22;;;;;;;1.33;0.93;;;;;;;11.84;100.00;100764.22;4953276;29;20051;-71
2022/04/30 09:42:51;;;;;;;1.08;0.57;;;;;;;11.86;100.00;100770.28;4953401;29;20051;-70
2022/04/30 09:45:27;;;;;;;1.92;0.80;;;;;;;11.87;100.00;100769.50;4953696;29;20083;-70
2022/04/30 09:47:56;;;;;;;1.33;1.00;;;;;;;11.89;100.00;100773.00;4952945;29;20094;-70
2022/04/30 09:56:06;;;;;;;0.95;0.73;;;;;;;11.92;100.00;100760.09;4953787;29;20058;-70
2022/04/30 09:58:40;;;;;;;1.15;0.60;;;;;;;11.94;100.00;100755.84;4953387;29;20055;-70
2022/04/30 10:01:11;;;;;;;1.65;0.75;;;;;;;11.93;100.00;100763.56;4953637;29;20055;-70
2022/04/30 10:03:41;;;;;;;1.10;0.70;;;;;;;11.93;100.00;100758.38;4953615;28;20135;-71
2022/04/30 10:06:11;;;;;;;0.90;0.65;;;;;;;11.89;100.00;100738.44;4952751;29;20130;-70
2022/04/30 10:08:44;;;;;;;2.25;0.70;;;;;;;11.97;100.00;100739.47;4953570;29;20054;-70
2022/04/30 10:11:23;;;;;;;2.53;0.77;;;;;;;11.97;100.00;100742.06;4953354;28;20057;-70
2022/04/30 10:14:04;;;;;;;1.95;0.70;;;;;;;11.97;100.00;100738.59;4953373;29;20094;-70
2022/04/30 10:16:34;;;;;;;0.82;0.65;;;;;;;11.94;100.00;100732.50;4952949;29;20552;-70
2022/04/30 10:19:11;;;;;;;0.88;0.60;;;;;;;11.98;100.00;100735.16;4956981;29;20052;-70
2022/04/30 10:21:41;;;;;;;0.80;0.50;;;;;;;11.98;100.00;100735.16;4954005;29;20051;-70
2022/04/30 10:24:12;;;;;;;1.10;0.50;;;;;;;11.98;100.00;100729.97;4953291;29;20535;-71
2022/04/30 10:27:00;;;;;;;1.13;0.80;;;;;;;11.97;100.00;100723.03;4951945;28;20059;-70
2022/04/30 10:29:28;;;;;;;2.05;1.05;;;;;;;11.99;100.00;100721.38;4953403;28;20051;-70
2022/04/30 10:31:57;;;;;;;1.23;0.75;;;;;;;11.97;100.00;100718.72;4952886;29;20095;-70
2022/04/30 10:34:32;;;;;;;1.92;0.70;;;;;;;11.97;100.00;100715.28;4952555;29;20056;-71
2022/04/30 10:37:04;;;;;;;1.17;0.68;;;;;;;11.95;100.00;100721.28;4954417;28;20063;-71
2022/04/30 10:39:32;;;;;;;0.98;0.70;;;;;;;11.93;100.00;100719.50;4952579;29;20083;-70
2022/04/30 10:42:01;;;;;;;1.33;0.68;;;;;;;11.91;100.00;100719.47;4952451;29;20083;-69
2022/04/30 10:44:31;;;;;;;0.98;0.63;;;;;;;11.91;100.00;100711.69;4952305;29;20055;-69
2022/04/30 10:47:12;;;;;;;2.08;0.80;;;;;;;11.90;100.00;100712.53;4952036;29;20055;-69
2022/04/30 10:49:40;;;;;;;1.13;0.75;;;;;;;11.88;100.00;100713.34;4952045;29;20057;-69
2022/04/30 10:52:11;;;;;;;1.45;0.85;;;;;;;11.90;100.00;100712.53;4951955;29;20086;-69
2022/04/30 10:54:42;;;;;;;1.08;0.70;;;;;;;11.93;100.00;100715.22;4952145;29;20058;-70
2022/04/30 10:57:11;;;;;;;2.05;0.65;;;;;;;11.93;100.00;100707.44;4952372;29;20134;-71
2022/04/30 10:59:39;;;;;;;0.75;0.70;;;;;;;11.92;100.00;100710.84;4945776;29;20167;-70
2022/04/30 11:02:11;;;;;;;1.65;0.60;;;;;;;11.92;100.00;100705.66;4951362;29;20040;-69
2022/04/30 11:04:42;;;;;;;1.73;0.60;;;;;;;11.91;100.00;100718.56;4952637;28;20063;-71
2022/04/30 11:07:13;;;;;;;1.20;0.70;;;;;;;11.92;100.00;100699.59;4951808;29;20055;-70
2022/04/30 11:09:47;;;;;;;1.60;0.80;;;;;;;11.92;100.00;100710.84;4952018;29;20051;-70
2022/04/30 11:12:16;;;;;;;0.82;0.60;;;;;;;11.88;100.00;100696.06;4952218;29;20058;-70
2022/04/30 11:14:46;;;;;;;2.13;0.88;;;;;;;11.88;100.00;100702.97;4952819;29;20675;-70
2022/04/30 11:17:15;;;;;;;1.30;0.80;;;;;;;11.86;100.00;100705.47;4954540;29;20043;-70
2022/04/30 11:19:44;;;;;;;2.20;1.02;;;;;;;11.88;100.00;100698.66;4952733;29;20110;-69
2022/04/30 11:22:15;;;;;;;2.35;1.00;;;;;;;11.89;100.00;100702.13;4952006;29;20110;-70
2022/04/30 11:24:44;;;;;;;1.25;0.85;;;;;;;11.89;100.00;100703.00;4952274;28;20110;-69
2022/04/30 11:27:12;;;;;;;2.67;0.77;;;;;;;11.91;100.00;100700.44;4951409;29;20047;-69
2022/04/30 11:29:50;;;;;;;0.93;0.70;;;;;;;11.90;100.00;100699.56;4952375;29;20051;-70
2022/04/30 11:32:22;;;;;;;1.48;0.82;;;;;;;11.88;100.00;100697.78;4948467;29;20130;-69
2022/04/30 11:34:51;;;;;;;1.35;0.70;;;;;;;11.89;100.00;100704.72;4947578;29;20062;-72
2022/04/30 11:37:21;;;;;;;1.40;0.82;;;;;;;11.86;100.00;100705.47;4965171;28;20046;-70
2022/04/30 11:39:49;;;;;;;2.03;0.90;;;;;;;11.85;100.00;100703.75;4990500;28;20561;-69
2022/04/30 11:42:18;;;;;;;1.92;1.00;;;;;;;11.87;100.00;100704.69;4989548;28;20630;-70
2022/04/30 11:44:46;;;;;;;1.48;0.98;;;;;;;11.88;100.00;100698.66;4990469;28;20480;-71
2022/04/30 11:47:15;;;;;;;2.13;1.05;;;;;;;11.89;100.00;100695.22;4990158;28;20588;-70
2022/04/30 11:49:44;;;;;;;1.80;1.00;;;;;;;11.90;100.00;100696.97;4990477;28;20142;-71
2022/04/30 11:52:13;;;;;;;1.88;0.95;;;;;;;11.91;100.00;100690.97;4989668;28;20058;-70
2022/04/30 11:54:43;;;;;;;1.60;0.90;;;;;;;11.90;100.00;100686.59;4990024;28;20046;-69
2022/04/30 11:57:16;;;;;;;1.10;0.80;;;;;;;11.91;100.00;100688.38;4982541;28;20061;-69
2022/04/30 11:59:44;;;;;;;3.47;1.35;;;;;;;11.93;100.00;100697.06;4989926;28;20121;-70
2022/04/30 12:02:14;;;;;;;1.52;1.10;;;;;;;11.90;100.00;100699.56;4989746;28;20564;-69
2022/04/30 12:04:44;;;;;;;1.38;0.80;;;;;;;11.93;100.00;100697.06;4990256;28;20070;-70